createdAt,value
2023-03-10T00:00:42.905Z,77.90
2023-03-10T00:01:44.721Z,78.35
2023-03-10T00:02:49.751Z,78.32
2023-03-10T00:03:51.625Z,78.45
2023-03-10T00:04:54.386Z,78.07
2023-03-10T00:05:56.315Z,78.04
2023-03-10T00:06:58.054Z,78.03
2023-03-10T00:07:59.948Z,78.03
2023-03-10T00:09:01.803Z,78.30
2023-03-10T00:10:04.023Z,78.39
2023-03-10T00:11:05.845Z,78.31
2023-03-10T00:12:07.822Z,78.51
2023-03-10T00:13:09.704Z,78.15
2023-03-10T00:14:11.462Z,78.47
2023-03-10T00:15:13.308Z,78.35
2023-03-10T00:16:20.286Z,78.60
2023-03-10T00:17:22.304Z,78.63
2023-03-10T00:18:24.208Z,78.16
2023-03-10T00:19:27.054Z,77.74
2023-03-10T00:20:28.869Z,78.01
2023-03-10T00:21:31.450Z,78.54
2023-03-10T00:22:33.315Z,78.47
2023-03-10T00:23:37.472Z,78.34
2023-03-10T00:24:39.520Z,77.92
2023-03-10T00:25:41.313Z,78.26
2023-03-10T00:26:43.205Z,78.12
2023-03-10T00:27:44.960Z,78.05
2023-03-10T00:28:47.629Z,78.08
2023-03-10T00:29:51.478Z,78.33
2023-03-10T00:30:59.351Z,78.04
2023-03-10T00:32:01.166Z,78.31
2023-03-10T00:33:03.562Z,78.45
2023-03-10T00:34:06.034Z,78.74
2023-03-10T00:35:08.011Z,78.36
2023-03-10T00:36:14.750Z,78.19
2023-03-10T00:37:17.121Z,77.71
2023-03-10T00:38:18.977Z,78.08
2023-03-10T00:39:20.829Z,77.68
2023-03-10T00:40:22.712Z,77.83
2023-03-10T00:41:25.751Z,77.77
2023-03-10T00:42:27.558Z,78.09
2023-03-10T00:43:29.492Z,77.99
2023-03-10T00:44:31.313Z,77.67
2023-03-10T00:45:34.974Z,77.75
2023-03-10T00:46:38.838Z,77.18
2023-03-10T00:47:40.959Z,77.35
2023-03-10T00:48:43.069Z,76.93
2023-03-10T00:49:44.909Z,77.08
2023-03-10T00:50:46.765Z,77.26
2023-03-10T00:51:48.565Z,77.12
2023-03-10T00:52:51.531Z,77.38
2023-03-10T00:53:53.544Z,76.91
2023-03-10T00:54:55.394Z,76.91
2023-03-10T00:56:08.210Z,77.41
2023-03-10T00:57:10.043Z,77.22
2023-03-10T00:58:11.829Z,77.79
2023-03-10T00:59:13.555Z,77.79
2023-03-10T01:00:18.293Z,77.23
2023-03-10T01:01:21.447Z,77.22
2023-03-10T01:02:23.340Z,76.84
2023-03-10T01:03:25.907Z,77.06
2023-03-10T01:04:27.803Z,77.44
2023-03-10T01:05:29.738Z,77.13
2023-03-10T01:06:32.273Z,77.33
2023-03-10T01:07:34.044Z,77.16
2023-03-10T01:08:36.190Z,77.08
2023-03-10T01:09:38.035Z,77.16
2023-03-10T01:10:39.847Z,77.11
2023-03-10T01:11:41.909Z,77.06
2023-03-10T01:12:43.870Z,77.41
2023-03-10T01:13:45.917Z,77.34
2023-03-10T01:14:47.715Z,77.48
2023-03-10T01:15:51.061Z,77.49
2023-03-10T01:16:53.145Z,77.13
2023-03-10T01:17:54.934Z,77.30
2023-03-10T01:18:57.539Z,76.96
2023-03-10T01:19:59.517Z,77.12
2023-03-10T01:21:01.390Z,77.84
2023-03-10T01:22:03.240Z,77.29
2023-03-10T01:23:05.086Z,77.57
2023-03-10T01:24:07.862Z,76.88
2023-03-10T01:25:13.777Z,77.38
2023-03-10T01:26:18.121Z,77.62
2023-03-10T01:27:20.489Z,77.77
2023-03-10T01:28:22.661Z,77.69
2023-03-10T01:29:24.589Z,77.35
2023-03-10T01:30:26.546Z,77.75
2023-03-10T01:31:28.482Z,77.54
2023-03-10T01:32:30.336Z,77.20
2023-03-10T01:33:32.917Z,77.61
2023-03-10T01:34:34.677Z,78.04
2023-03-10T01:35:36.689Z,77.86
2023-03-10T01:36:41.018Z,77.81
2023-03-10T01:37:44.490Z,77.89
2023-03-10T01:38:47.241Z,77.44
2023-03-10T01:39:48.985Z,77.97
2023-03-10T01:40:51.278Z,77.81
2023-03-10T01:41:53.084Z,77.79
2023-03-10T01:43:14.820Z,77.60
2023-03-10T01:44:18.769Z,77.82
2023-03-10T01:45:20.542Z,77.83
2023-03-10T01:46:37.318Z,77.88
2023-03-10T01:47:39.192Z,77.86
2023-03-10T01:48:41.048Z,77.64
2023-03-10T01:49:45.936Z,77.80
2023-03-10T01:50:49.972Z,77.54
2023-03-10T01:51:55.819Z,78.10
2023-03-10T01:52:58.901Z,78.31
2023-03-10T01:54:02.198Z,78.27
2023-03-10T01:55:12.064Z,78.52
2023-03-10T01:56:14.842Z,78.57
2023-03-10T01:57:17.544Z,78.32
2023-03-10T01:58:21.132Z,78.42
2023-03-10T01:59:24.090Z,78.17
2023-03-10T02:00:26.773Z,78.25
2023-03-10T02:01:28.867Z,78.34
2023-03-10T02:02:33.762Z,78.17
2023-03-10T02:03:41.211Z,78.43
2023-03-10T02:04:48.997Z,78.64
2023-03-10T02:05:54.022Z,78.67
2023-03-10T02:06:56.969Z,78.73
2023-03-10T02:07:59.926Z,78.87
2023-03-10T02:09:03.201Z,78.70
2023-03-10T02:10:05.613Z,78.66
2023-03-10T02:11:07.722Z,78.85
2023-03-10T02:12:09.857Z,78.68
2023-03-10T02:13:11.725Z,78.64
2023-03-10T02:14:13.557Z,78.72
2023-03-10T02:15:15.500Z,78.78
2023-03-10T02:16:18.535Z,78.82
2023-03-10T02:17:22.260Z,78.49
2023-03-10T02:18:24.513Z,78.56
2023-03-10T02:19:46.586Z,78.98
2023-03-10T02:21:06.764Z,78.15
2023-03-10T02:22:10.658Z,78.26
2023-03-10T02:23:16.109Z,78.17
2023-03-10T02:24:27.038Z,78.30
2023-03-10T02:25:34.757Z,78.43
2023-03-10T02:26:41.371Z,78.58
2023-03-10T02:27:43.464Z,78.66
2023-03-10T02:28:46.535Z,78.48
2023-03-10T02:29:59.982Z,78.55
2023-03-10T02:31:02.594Z,78.96
2023-03-10T02:32:04.996Z,78.92
2023-03-10T02:33:15.316Z,79.21
2023-03-10T02:34:17.298Z,79.10
2023-03-10T02:35:19.324Z,79.25
2023-03-10T02:36:22.169Z,79.26
2023-03-10T02:37:29.190Z,79.29
2023-03-10T02:38:31.100Z,79.44
2023-03-10T02:39:32.886Z,79.26
2023-03-10T02:40:40.816Z,78.81
2023-03-10T02:41:45.468Z,79.66
2023-03-10T02:42:47.461Z,79.64
2023-03-10T02:43:49.951Z,79.57
2023-03-10T02:44:52.643Z,79.62
2023-03-10T02:45:57.301Z,79.65
2023-03-10T02:46:59.171Z,79.79
2023-03-10T02:48:00.988Z,79.61
2023-03-10T02:49:03.526Z,79.77
2023-03-10T02:50:08.693Z,79.59
2023-03-10T02:51:14.194Z,80.08
2023-03-10T02:52:27.779Z,80.09
2023-03-10T02:53:30.190Z,80.11
2023-03-10T02:54:32.098Z,80.27
2023-03-10T02:55:34.023Z,80.19
2023-03-10T02:56:36.520Z,80.36
2023-03-10T02:57:38.321Z,79.89
2023-03-10T02:58:40.211Z,80.02
2023-03-10T02:59:42.071Z,80.30
2023-03-10T03:00:45.230Z,80.37
2023-03-10T03:01:47.129Z,80.16
2023-03-10T03:02:48.989Z,80.24
2023-03-10T03:03:50.986Z,79.99
2023-03-10T03:04:52.857Z,79.90
2023-03-10T03:05:54.631Z,79.63
2023-03-10T03:06:56.405Z,80.02
2023-03-10T03:07:58.280Z,79.66
2023-03-10T03:09:00.172Z,79.68
2023-03-10T03:10:01.946Z,79.66
2023-03-10T03:11:04.245Z,80.02
2023-03-10T03:12:06.214Z,80.28
2023-03-10T03:13:08.593Z,79.84
2023-03-10T03:14:10.551Z,79.89
2023-03-10T03:15:12.563Z,79.92
2023-03-10T03:16:14.510Z,80.27
2023-03-10T03:17:16.403Z,80.04
2023-03-10T03:18:18.283Z,80.36
2023-03-10T03:19:20.209Z,80.62
2023-03-10T03:20:22.079Z,80.59
2023-03-10T03:21:23.901Z,80.58
2023-03-10T03:22:25.721Z,80.59
2023-03-10T03:23:27.716Z,80.74
2023-03-10T03:24:29.558Z,80.72
2023-03-10T03:25:34.766Z,80.58
2023-03-10T03:26:36.543Z,80.44
2023-03-10T03:27:38.351Z,80.53
2023-03-10T03:28:40.367Z,80.39
2023-03-10T03:29:42.274Z,80.21
2023-03-10T03:30:45.297Z,80.29
2023-03-10T03:31:47.149Z,80.42
2023-03-10T03:32:49.145Z,80.78
2023-03-10T03:33:51.408Z,80.73
2023-03-10T03:34:53.225Z,80.53
2023-03-10T03:35:55.156Z,80.77
2023-03-10T03:36:57.101Z,80.43
2023-03-10T03:37:59.110Z,80.44
2023-03-10T03:39:01.059Z,80.49
2023-03-10T03:40:07.997Z,80.53
2023-03-10T03:41:10.742Z,80.27
2023-03-10T03:42:12.491Z,80.05
2023-03-10T03:43:14.872Z,80.66
2023-03-10T03:44:16.691Z,80.23
2023-03-10T03:45:20.207Z,80.57
2023-03-10T03:46:22.034Z,80.19
2023-03-10T03:47:23.888Z,80.17
2023-03-10T03:48:25.736Z,80.26
2023-03-10T03:49:27.653Z,80.22
2023-03-10T03:50:29.500Z,80.02
2023-03-10T03:51:31.406Z,79.97
2023-03-10T03:52:33.766Z,79.83
2023-03-10T03:53:35.939Z,79.43
2023-03-10T03:54:37.924Z,79.74
2023-03-10T03:55:39.808Z,79.62
2023-03-10T03:56:41.694Z,79.51
2023-03-10T03:57:45.178Z,79.32
2023-03-10T03:58:46.880Z,79.33
2023-03-10T03:59:48.769Z,79.40
2023-03-10T04:00:51.844Z,79.57
2023-03-10T04:01:53.824Z,79.64
2023-03-10T04:02:55.620Z,79.44
2023-03-10T04:03:57.563Z,79.42
2023-03-10T04:04:59.566Z,79.70
2023-03-10T04:06:01.600Z,79.85
2023-03-10T04:07:03.585Z,79.95
2023-03-10T04:08:05.584Z,79.89
2023-03-10T04:09:07.824Z,80.14
2023-03-10T04:10:11.093Z,79.89
2023-03-10T04:11:12.900Z,80.26
2023-03-10T04:12:14.801Z,79.79
2023-03-10T04:13:16.687Z,80.19
2023-03-10T04:14:18.741Z,80.25
2023-03-10T04:15:21.279Z,80.18
2023-03-10T04:16:23.064Z,80.27
2023-03-10T04:17:24.890Z,80.15
2023-03-10T04:18:26.983Z,80.18
2023-03-10T04:19:28.790Z,80.11
2023-03-10T04:20:30.578Z,79.99
2023-03-10T04:21:32.359Z,80.04
2023-03-10T04:22:34.211Z,80.04
2023-03-10T04:23:36.146Z,80.22
2023-03-10T04:24:39.693Z,80.28
2023-03-10T04:25:43.460Z,80.67
2023-03-10T04:26:45.405Z,80.21
2023-03-10T04:27:48.075Z,80.16
2023-03-10T04:28:49.910Z,80.08
2023-03-10T04:29:51.765Z,80.22
2023-03-10T04:30:53.548Z,80.69
2023-03-10T04:32:05.173Z,80.47
2023-03-10T04:33:09.771Z,80.45
2023-03-10T04:34:11.593Z,80.55
2023-03-10T04:35:13.882Z,80.93
2023-03-10T04:36:16.235Z,80.62
2023-03-10T04:37:18.297Z,80.47
2023-03-10T04:38:20.167Z,80.49
2023-03-10T04:39:21.971Z,80.38
2023-03-10T04:40:23.935Z,80.71
2023-03-10T04:41:26.005Z,80.86
2023-03-10T04:42:28.311Z,80.74
2023-03-10T04:43:30.119Z,81.41
2023-03-10T04:44:32.005Z,81.14
2023-03-10T04:45:33.795Z,81.45
2023-03-10T04:46:35.699Z,81.87
2023-03-10T04:47:38.181Z,81.83
2023-03-10T04:48:40.140Z,81.57
2023-03-10T04:49:42.305Z,82.31
2023-03-10T04:50:44.244Z,81.79
2023-03-10T04:51:48.110Z,81.70
2023-03-10T04:52:50.737Z,82.00
2023-03-10T04:53:52.579Z,81.80
2023-03-10T04:54:54.411Z,81.69
2023-03-10T04:55:56.253Z,81.69
2023-03-10T04:56:58.227Z,81.18
2023-03-10T04:58:00.021Z,81.29
2023-03-10T04:59:01.925Z,81.33
2023-03-10T05:00:08.236Z,81.35
2023-03-10T05:01:10.815Z,81.17
2023-03-10T05:02:12.746Z,81.46
2023-03-10T05:03:14.663Z,81.22
2023-03-10T05:04:16.523Z,81.18
2023-03-10T05:05:18.471Z,81.88
2023-03-10T05:06:21.872Z,81.58
2023-03-10T05:07:23.955Z,82.14
2023-03-10T05:08:25.733Z,82.31
2023-03-10T05:09:27.899Z,82.55
2023-03-10T05:10:29.757Z,82.12
2023-03-10T05:11:32.417Z,82.64
2023-03-10T05:12:34.275Z,82.88
2023-03-10T05:13:36.267Z,82.75
2023-03-10T05:14:38.503Z,83.11
2023-03-10T05:15:40.757Z,82.81
2023-03-10T05:16:43.092Z,82.88
2023-03-10T05:17:44.966Z,83.01
2023-03-10T05:18:47.252Z,82.96
2023-03-10T05:19:49.140Z,82.86
2023-03-10T05:20:55.582Z,83.14
2023-03-10T05:21:57.393Z,83.00
2023-03-10T05:22:59.310Z,83.06
2023-03-10T05:24:01.932Z,82.97
2023-03-10T05:25:05.192Z,82.39
2023-03-10T05:26:08.823Z,82.79
2023-03-10T05:27:11.414Z,82.58
2023-03-10T05:28:13.222Z,83.01
2023-03-10T05:29:15.154Z,83.14
2023-03-10T05:30:17.326Z,82.68
2023-03-10T05:31:26.264Z,83.03
2023-03-10T05:32:28.295Z,82.59
2023-03-10T05:33:31.515Z,82.82
2023-03-10T05:34:33.553Z,82.49
2023-03-10T05:35:35.523Z,82.23
2023-03-10T05:36:37.348Z,82.69
2023-03-10T05:37:40.088Z,82.63
2023-03-10T05:38:41.962Z,83.08
2023-03-10T05:39:46.567Z,82.89
2023-03-10T05:40:48.552Z,83.23
2023-03-10T05:41:50.439Z,83.78
2023-03-10T05:42:52.358Z,83.74
2023-03-10T05:43:54.331Z,83.96
2023-03-10T05:44:56.056Z,84.07
2023-03-10T05:45:58.598Z,84.28
2023-03-10T05:47:00.556Z,84.17
2023-03-10T05:48:02.525Z,83.56
2023-03-10T05:49:04.345Z,83.41
2023-03-10T05:50:06.521Z,83.39
2023-03-10T05:51:10.362Z,84.01
2023-03-10T05:52:12.369Z,83.21
2023-03-10T05:53:14.242Z,82.99
2023-03-10T05:54:17.036Z,83.57
2023-03-10T05:55:19.819Z,83.86
2023-03-10T05:56:22.559Z,83.85
2023-03-10T05:57:24.344Z,84.70
2023-03-10T05:58:28.511Z,84.54
2023-03-10T05:59:30.330Z,84.72
2023-03-10T06:00:32.208Z,84.71
2023-03-10T06:01:34.113Z,84.88
2023-03-10T06:02:36.199Z,84.56
2023-03-10T06:03:38.701Z,84.71
2023-03-10T06:04:40.638Z,84.71
2023-03-10T06:05:42.496Z,84.95
2023-03-10T06:06:44.404Z,84.61
2023-03-10T06:07:46.264Z,85.04
2023-03-10T06:08:48.246Z,85.03
2023-03-10T06:09:50.122Z,84.61
2023-03-10T06:10:51.978Z,84.41
2023-03-10T06:11:53.852Z,84.56
2023-03-10T06:12:55.780Z,84.40
2023-03-10T06:13:57.792Z,84.50
2023-03-10T06:14:59.807Z,84.20
2023-03-10T06:16:02.496Z,84.23
2023-03-10T06:17:04.466Z,83.81
2023-03-10T06:18:06.221Z,83.81
2023-03-10T06:19:08.160Z,83.53
2023-03-10T06:20:10.339Z,83.97
2023-03-10T06:21:14.396Z,83.65
2023-03-10T06:22:16.210Z,83.32
2023-03-10T06:23:18.222Z,83.40
2023-03-10T06:24:20.111Z,83.56
2023-03-10T06:25:21.972Z,83.28
2023-03-10T06:26:24.676Z,83.08
2023-03-10T06:27:26.608Z,82.99
2023-03-10T06:28:33.423Z,83.08
2023-03-10T06:29:35.299Z,83.06
2023-03-10T06:30:37.357Z,82.61
2023-03-10T06:31:39.172Z,82.93
2023-03-10T06:32:41.535Z,83.04
2023-03-10T06:33:44.166Z,83.05
2023-03-10T06:34:45.935Z,83.15
2023-03-10T06:35:47.880Z,82.95
2023-03-10T06:36:49.855Z,82.96
2023-03-10T06:37:51.644Z,83.06
2023-03-10T06:38:54.190Z,82.82
2023-03-10T06:39:56.080Z,82.74
2023-03-10T06:40:58.624Z,82.46
2023-03-10T06:42:01.396Z,81.94
2023-03-10T06:43:03.246Z,81.83
2023-03-10T06:44:05.102Z,81.82
2023-03-10T06:45:07.869Z,81.57
2023-03-10T06:46:11.053Z,81.60
2023-03-10T06:47:12.917Z,81.46
2023-03-10T06:48:15.250Z,81.10
2023-03-10T06:49:17.112Z,81.81
2023-03-10T06:50:18.943Z,81.86
2023-03-10T06:51:21.392Z,81.79
2023-03-10T06:52:23.306Z,81.57
2023-03-10T06:53:25.220Z,81.40
2023-03-10T06:54:27.201Z,81.39
2023-03-10T06:55:29.108Z,81.48
2023-03-10T06:56:30.997Z,81.10
2023-03-10T06:57:32.749Z,81.03
2023-03-10T06:58:36.094Z,80.82
2023-03-10T06:59:37.973Z,80.57
2023-03-10T07:00:39.927Z,80.78
2023-03-10T07:01:41.856Z,80.39
2023-03-10T07:02:43.738Z,80.53
2023-03-10T07:03:45.463Z,80.27
2023-03-10T07:04:47.316Z,80.17
2023-03-10T07:05:49.293Z,79.80
2023-03-10T07:06:51.180Z,79.86
2023-03-10T07:07:54.033Z,79.78
2023-03-10T07:08:56.082Z,79.37
2023-03-10T07:09:57.959Z,79.33
2023-03-10T07:10:59.723Z,79.23
2023-03-10T07:12:01.580Z,78.98
2023-03-10T07:13:03.396Z,79.13
2023-03-10T07:14:05.223Z,78.86
2023-03-10T07:15:07.371Z,79.01
2023-03-10T07:16:09.161Z,79.08
2023-03-10T07:17:11.065Z,79.81
2023-03-10T07:18:13.211Z,80.03
2023-03-10T07:19:15.028Z,80.53
2023-03-10T07:20:17.692Z,80.02
2023-03-10T07:21:20.631Z,80.16
2023-03-10T07:22:23.116Z,79.97
2023-03-10T07:23:25.584Z,79.96
2023-03-10T07:24:27.443Z,79.88
2023-03-10T07:25:29.391Z,79.88
2023-03-10T07:26:31.307Z,79.82
2023-03-10T07:27:33.504Z,79.69
2023-03-10T07:28:36.117Z,79.80
2023-03-10T07:29:37.925Z,79.89
2023-03-10T07:30:40.381Z,79.86
2023-03-10T07:31:44.211Z,80.01
2023-03-10T07:32:46.158Z,80.16
2023-03-10T07:33:49.765Z,80.13
2023-03-10T07:34:52.352Z,80.13
2023-03-10T07:35:54.275Z,80.11
2023-03-10T07:36:56.247Z,80.13
2023-03-10T07:37:58.152Z,79.94
2023-03-10T07:38:59.969Z,80.04
2023-03-10T07:40:01.806Z,79.47
2023-03-10T07:41:14.964Z,79.43
2023-03-10T07:42:16.725Z,79.32
2023-03-10T07:43:18.703Z,79.60
2023-03-10T07:44:20.763Z,79.44
2023-03-10T07:45:23.426Z,80.38
2023-03-10T07:46:25.363Z,80.39
2023-03-10T07:47:27.165Z,80.06
2023-03-10T07:48:29.107Z,79.91
2023-03-10T07:49:30.908Z,79.01
2023-03-10T07:50:32.719Z,78.36
2023-03-10T07:51:34.623Z,78.01
2023-03-10T07:52:36.472Z,77.57
2023-03-10T07:53:38.749Z,76.97
2023-03-10T07:54:40.593Z,77.19
2023-03-10T07:55:42.564Z,76.86
2023-03-10T07:56:44.352Z,76.84
2023-03-10T07:57:46.131Z,76.72
2023-03-10T07:58:48.132Z,76.54
2023-03-10T07:59:49.971Z,76.32
2023-03-10T08:00:59.099Z,76.10
2023-03-10T08:02:00.888Z,76.20
2023-03-10T08:03:02.757Z,76.52
2023-03-10T08:04:05.644Z,76.76
2023-03-10T08:05:08.271Z,76.23
2023-03-10T08:06:15.996Z,76.03
2023-03-10T08:07:17.913Z,76.01
2023-03-10T08:08:20.025Z,74.54
2023-03-10T08:09:21.921Z,74.78
2023-03-10T08:10:24.183Z,75.41
2023-03-10T08:11:26.133Z,74.66
2023-03-10T08:12:28.061Z,75.14
2023-03-10T08:13:30.455Z,74.47
2023-03-10T08:14:32.631Z,74.83
2023-03-10T08:15:34.555Z,73.94
2023-03-10T08:16:38.201Z,73.87
2023-03-10T08:17:40.578Z,73.81
2023-03-10T08:18:42.390Z,75.16
2023-03-10T08:19:44.282Z,74.00
2023-03-10T08:20:46.084Z,72.54
2023-03-10T08:21:47.954Z,72.33
2023-03-10T08:22:49.791Z,72.81
2023-03-10T08:23:51.637Z,73.26
2023-03-10T08:24:53.642Z,73.52
2023-03-10T08:25:55.540Z,73.25
2023-03-10T08:26:57.541Z,73.12
2023-03-10T08:27:59.468Z,72.84
2023-03-10T08:29:01.373Z,72.53
2023-03-10T08:30:03.320Z,73.03
2023-03-10T08:31:11.274Z,73.50
2023-03-10T08:32:13.258Z,73.01
2023-03-10T08:33:15.086Z,73.13
2023-03-10T08:34:17.438Z,72.49
2023-03-10T08:35:19.671Z,70.74
2023-03-10T08:36:22.641Z,70.75
2023-03-10T08:37:24.554Z,71.60
2023-03-10T08:38:26.416Z,72.06
2023-03-10T08:39:28.969Z,71.85
2023-03-10T08:40:31.429Z,72.30
2023-03-10T08:41:37.562Z,73.33
2023-03-10T08:42:39.617Z,73.00
2023-03-10T08:43:41.864Z,73.02
2023-03-10T08:44:43.784Z,71.35
2023-03-10T08:45:45.615Z,71.11
2023-03-10T08:46:48.178Z,70.66
2023-03-10T08:47:50.124Z,70.71
2023-03-10T08:48:52.802Z,69.83
2023-03-10T08:49:54.632Z,70.71
2023-03-10T08:50:57.996Z,69.73
2023-03-10T08:52:00.666Z,69.79
2023-03-10T08:53:04.290Z,69.41
2023-03-10T08:54:06.117Z,69.65
2023-03-10T08:55:08.795Z,70.85
2023-03-10T08:56:10.570Z,69.85
2023-03-10T08:57:12.348Z,70.50
2023-03-10T08:58:14.247Z,70.69
2023-03-10T08:59:16.199Z,70.49
2023-03-10T09:00:18.315Z,70.91
2023-03-10T09:01:20.086Z,71.09
2023-03-10T09:02:22.735Z,69.80
2023-03-10T09:03:25.995Z,70.06
2023-03-10T09:04:27.861Z,69.16
2023-03-10T09:05:29.796Z,69.23
2023-03-10T09:06:31.557Z,67.98
2023-03-10T09:07:33.440Z,68.32
2023-03-10T09:08:35.772Z,67.94
2023-03-10T09:09:37.597Z,66.67
2023-03-10T09:10:40.691Z,66.11
2023-03-10T09:11:42.501Z,65.03
2023-03-10T09:12:44.394Z,64.50
2023-03-10T09:13:46.509Z,64.97
2023-03-10T09:14:48.337Z,65.05
2023-03-10T09:15:51.054Z,65.20
2023-03-10T09:16:53.036Z,65.60
2023-03-10T09:17:55.899Z,64.97
2023-03-10T09:18:58.535Z,65.39
2023-03-10T09:20:00.410Z,64.76
2023-03-10T09:21:02.213Z,63.82
2023-03-10T09:22:04.134Z,63.26
2023-03-10T09:23:06.499Z,63.52
2023-03-10T09:24:08.555Z,63.73
2023-03-10T09:25:11.511Z,63.05
2023-03-10T09:26:13.961Z,62.97
2023-03-10T09:27:15.814Z,62.46
2023-03-10T09:28:18.845Z,62.11
2023-03-10T09:29:27.020Z,63.09
2023-03-10T09:30:40.211Z,62.12
2023-03-10T09:31:43.807Z,62.52
2023-03-10T09:32:45.754Z,62.71
2023-03-10T09:33:48.340Z,62.73
2023-03-10T09:34:50.537Z,63.39
2023-03-10T09:36:05.258Z,62.53
2023-03-10T09:37:08.616Z,62.72
2023-03-10T09:38:10.758Z,61.75
2023-03-10T09:39:12.537Z,61.48
2023-03-10T09:40:20.830Z,61.89
2023-03-10T09:41:33.164Z,62.27
2023-03-10T09:42:46.425Z,62.88
2023-03-10T09:43:55.365Z,61.43
2023-03-10T09:45:23.456Z,61.82
2023-03-10T09:46:27.860Z,62.08
2023-03-10T09:47:41.938Z,61.46
2023-03-10T09:49:05.139Z,60.69
2023-03-10T09:50:23.428Z,59.65
2023-03-10T09:51:27.784Z,58.83
2023-03-10T09:52:52.931Z,59.30
2023-03-10T09:54:03.388Z,58.38
2023-03-10T09:55:26.028Z,58.08
2023-03-10T09:56:34.656Z,57.05
2023-03-10T09:57:36.568Z,57.81
2023-03-10T09:58:47.131Z,55.40
2023-03-10T09:59:50.991Z,55.96
2023-03-10T10:00:52.977Z,56.89
2023-03-10T10:01:55.380Z,56.70
2023-03-10T10:03:00.271Z,56.02
2023-03-10T10:04:18.648Z,56.22
2023-03-10T10:05:23.996Z,57.49
2023-03-10T10:06:38.059Z,57.44
2023-03-10T10:07:49.543Z,56.87
2023-03-10T10:09:03.627Z,57.49
2023-03-10T10:10:09.495Z,57.46
2023-03-10T10:11:14.465Z,57.59
2023-03-10T10:12:17.749Z,57.90
2023-03-10T10:13:19.941Z,58.26
2023-03-10T10:14:31.024Z,58.89
2023-03-10T10:15:37.049Z,58.19
2023-03-10T10:17:00.161Z,57.71
2023-03-10T10:18:18.856Z,57.69
2023-03-10T10:19:23.446Z,58.69
2023-03-10T10:20:39.854Z,58.88
2023-03-10T10:21:53.700Z,59.38
2023-03-10T10:22:55.580Z,59.54
2023-03-10T10:23:59.544Z,59.20
2023-03-10T10:25:13.503Z,59.92
2023-03-10T10:26:16.815Z,59.50
2023-03-10T10:27:21.446Z,59.38
2023-03-10T10:28:44.129Z,59.34
2023-03-10T10:29:47.363Z,59.67
2023-03-10T10:30:49.577Z,60.00
2023-03-10T10:32:03.891Z,59.82
2023-03-10T10:33:07.225Z,59.44
2023-03-10T10:34:22.086Z,58.55
2023-03-10T10:35:27.618Z,58.18
2023-03-10T10:36:48.634Z,59.07
2023-03-10T10:37:58.638Z,59.69
2023-03-10T10:39:00.557Z,59.39
2023-03-10T10:40:02.409Z,58.52
2023-03-10T10:41:07.457Z,59.47
2023-03-10T10:42:12.826Z,57.88
2023-03-10T10:43:16.989Z,58.69
2023-03-10T10:44:19.390Z,59.14
2023-03-10T10:45:27.315Z,59.26
2023-03-10T10:46:30.081Z,59.64
2023-03-10T10:47:33.527Z,59.51
2023-03-10T10:48:38.316Z,60.14
2023-03-10T10:49:40.152Z,59.70
2023-03-10T10:50:53.101Z,59.92
2023-03-10T10:51:58.212Z,59.53
2023-03-10T10:53:17.271Z,59.46
2023-03-10T10:54:22.901Z,60.15
2023-03-10T10:55:27.567Z,60.28
2023-03-10T10:56:29.665Z,60.10
2023-03-10T10:57:36.497Z,60.10
2023-03-10T10:58:39.370Z,59.28
2023-03-10T10:59:41.218Z,59.54
2023-03-10T11:00:43.030Z,59.62
2023-03-10T11:01:53.201Z,59.30
2023-03-10T11:02:55.657Z,59.97
2023-03-10T11:04:07.558Z,60.03
2023-03-10T11:05:12.436Z,59.75
2023-03-10T11:06:32.442Z,59.59
2023-03-10T11:07:34.252Z,59.54
2023-03-10T11:08:39.700Z,59.37
2023-03-10T11:09:41.602Z,59.39
2023-03-10T11:10:44.637Z,59.46
2023-03-10T11:12:01.978Z,60.15
2023-03-10T11:13:09.618Z,60.46
2023-03-10T11:14:29.827Z,59.91
2023-03-10T11:15:31.895Z,59.17
2023-03-10T11:16:57.084Z,59.79
2023-03-10T11:18:13.383Z,59.96
2023-03-10T11:19:41.486Z,60.03
2023-03-10T11:20:59.778Z,59.86
2023-03-10T11:22:09.354Z,59.77
2023-03-10T11:23:17.189Z,59.67
2023-03-10T11:24:34.673Z,60.46
2023-03-10T11:25:40.039Z,60.16
2023-03-10T11:26:45.080Z,59.32
2023-03-10T11:27:53.011Z,60.24
2023-03-10T11:29:21.238Z,59.63
2023-03-10T11:30:25.519Z,60.03
2023-03-10T11:31:36.946Z,60.47
2023-03-10T11:32:48.101Z,59.46
2023-03-10T11:33:59.311Z,59.85
2023-03-10T11:35:07.251Z,60.13
2023-03-10T11:36:21.305Z,60.01
2023-03-10T11:37:25.221Z,59.92
2023-03-10T11:38:44.574Z,60.06
2023-03-10T11:39:49.341Z,60.03
2023-03-10T11:41:14.560Z,60.98
2023-03-10T11:42:26.255Z,60.69
2023-03-10T11:43:31.946Z,60.53
2023-03-10T11:44:48.551Z,60.95
2023-03-10T11:45:53.861Z,59.30
2023-03-10T11:46:55.675Z,58.68
2023-03-10T11:47:57.550Z,57.45
2023-03-10T11:49:20.026Z,57.48
2023-03-10T11:50:28.353Z,57.27
2023-03-10T11:51:42.127Z,57.55
2023-03-10T11:52:44.976Z,58.40
2023-03-10T11:53:58.017Z,59.13
2023-03-10T11:55:07.278Z,59.27
2023-03-10T11:56:11.437Z,58.64
2023-03-10T11:57:25.131Z,58.62
2023-03-10T11:58:40.536Z,59.84
2023-03-10T11:59:48.002Z,60.03
2023-03-10T12:00:52.952Z,60.56
2023-03-10T12:02:24.941Z,60.96
2023-03-10T12:03:42.671Z,61.35
2023-03-10T12:04:51.402Z,61.59
2023-03-10T12:05:58.860Z,61.92
2023-03-10T12:07:04.164Z,62.31
2023-03-10T12:08:07.178Z,62.81
2023-03-10T12:09:16.105Z,63.66
2023-03-10T12:10:22.177Z,62.89
2023-03-10T12:11:27.323Z,61.55
2023-03-10T12:12:34.014Z,61.75
2023-03-10T12:14:05.206Z,62.03
2023-03-10T12:15:22.524Z,59.79
2023-03-10T12:16:26.328Z,58.53
2023-03-10T12:17:28.840Z,59.44
2023-03-10T12:18:30.621Z,59.20
2023-03-10T12:19:32.542Z,59.25
2023-03-10T12:20:34.965Z,59.61
2023-03-10T12:21:36.859Z,59.89
2023-03-10T12:22:39.983Z,59.78
2023-03-10T12:23:46.560Z,59.33
2023-03-10T12:24:48.507Z,59.88
2023-03-10T12:25:50.429Z,59.88
2023-03-10T12:27:00.025Z,60.53
2023-03-10T12:28:13.817Z,60.87
2023-03-10T12:29:21.710Z,60.52
2023-03-10T12:30:41.859Z,60.26
2023-03-10T12:31:47.634Z,60.23
2023-03-10T12:32:49.617Z,60.10
2023-03-10T12:33:52.566Z,60.32
2023-03-10T12:35:14.257Z,60.55
2023-03-10T12:36:32.929Z,60.94
2023-03-10T12:37:34.692Z,60.92
2023-03-10T12:38:40.174Z,60.12
2023-03-10T12:39:46.261Z,59.51
2023-03-10T12:40:50.455Z,60.16
2023-03-10T12:41:53.387Z,59.63
2023-03-10T12:42:55.203Z,60.06
2023-03-10T12:44:00.452Z,60.18
2023-03-10T12:45:15.663Z,60.19
2023-03-10T12:46:23.587Z,59.41
2023-03-10T12:47:44.261Z,60.16
2023-03-10T12:48:48.551Z,58.74
2023-03-10T12:49:55.853Z,59.53
2023-03-10T12:51:00.134Z,59.54
2023-03-10T12:52:01.926Z,59.38
2023-03-10T12:53:22.558Z,59.36
2023-03-10T12:54:44.693Z,59.42
2023-03-10T12:56:05.568Z,59.59
2023-03-10T12:57:15.322Z,60.31
2023-03-10T12:58:23.825Z,60.20
2023-03-10T12:59:44.493Z,59.23
2023-03-10T13:00:49.474Z,59.72
2023-03-10T13:01:55.797Z,59.87
2023-03-10T13:03:03.906Z,59.19
2023-03-10T13:04:07.645Z,59.30
2023-03-10T13:05:19.405Z,59.90
2023-03-10T13:06:22.500Z,59.29
2023-03-10T13:07:24.354Z,58.49
2023-03-10T13:08:44.647Z,58.72
2023-03-10T13:09:48.203Z,58.83
2023-03-10T13:10:54.943Z,58.99
2023-03-10T13:12:03.463Z,58.65
2023-03-10T13:13:07.082Z,58.72
2023-03-10T13:14:16.409Z,59.32
2023-03-10T13:15:25.135Z,59.56
2023-03-10T13:16:27.051Z,59.15
2023-03-10T13:17:30.105Z,57.85
2023-03-10T13:18:32.241Z,57.88
2023-03-10T13:19:35.036Z,58.40
2023-03-10T13:20:37.768Z,58.51
2023-03-10T13:21:39.875Z,58.57
2023-03-10T13:22:51.981Z,58.79
2023-03-10T13:23:53.997Z,58.21
2023-03-10T13:25:04.532Z,57.94
2023-03-10T13:26:07.676Z,58.16
2023-03-10T13:27:14.097Z,58.62
2023-03-10T13:28:15.924Z,57.56
2023-03-10T13:29:19.126Z,57.58
2023-03-10T13:30:22.756Z,57.84
2023-03-10T13:31:26.147Z,58.19
2023-03-10T13:32:29.563Z,57.86
2023-03-10T13:33:35.400Z,58.23
2023-03-10T13:34:44.996Z,58.46
2023-03-10T13:35:47.710Z,58.97
2023-03-10T13:36:49.753Z,59.03
2023-03-10T13:38:09.898Z,58.01
2023-03-10T13:39:16.529Z,58.30
2023-03-10T13:40:18.599Z,57.91
2023-03-10T13:41:20.529Z,57.22
2023-03-10T13:42:28.297Z,56.31
2023-03-10T13:43:37.736Z,56.03
2023-03-10T13:44:41.083Z,54.95
2023-03-10T13:45:42.949Z,54.75
2023-03-10T13:47:04.761Z,55.01
2023-03-10T13:48:06.838Z,54.66
2023-03-10T13:49:09.016Z,53.97
2023-03-10T13:50:15.633Z,53.20